createdAt,value
2022-12-24T00:01:04.642Z,2.47
2022-12-24T00:03:31.779Z,3.00
2022-12-24T00:05:58.814Z,3.08
2022-12-24T00:08:25.737Z,3.22
2022-12-24T00:10:53.399Z,2.67
2022-12-24T00:13:25.608Z,2.88
2022-12-24T00:15:52.572Z,2.43
2022-12-24T00:18:19.368Z,2.92
2022-12-24T00:20:49.362Z,2.30
2022-12-24T00:23:17.209Z,3.13
2022-12-24T00:25:44.364Z,2.33
2022-12-24T00:28:11.568Z,3.33
2022-12-24T00:30:43.566Z,3.70
2022-12-24T00:33:11.027Z,3.50
2022-12-24T00:35:39.077Z,2.60
2022-12-24T00:38:06.443Z,2.60
2022-12-24T00:40:37.284Z,2.65
2022-12-24T00:43:04.105Z,3.08
2022-12-24T00:45:30.956Z,2.50
2022-12-24T00:47:57.784Z,3.70
2022-12-24T00:50:24.724Z,3.22
2022-12-24T00:52:51.566Z,4.00
2022-12-24T00:55:18.415Z,3.13
2022-12-24T00:57:45.224Z,4.20
2022-12-24T01:00:17.315Z,4.25
2022-12-24T01:02:44.517Z,3.50
2022-12-24T01:05:12.424Z,3.83
2022-12-24T01:07:44.461Z,3.85
2022-12-24T01:10:12.939Z,4.73
2022-12-24T01:12:40.058Z,4.75
2022-12-24T01:15:07.602Z,4.20
2022-12-24T01:17:35.489Z,4.53
2022-12-24T01:20:03.218Z,4.53
2022-12-24T01:22:30.009Z,4.13
2022-12-24T01:24:56.864Z,5.10
2022-12-24T01:27:23.770Z,4.00
2022-12-24T01:29:50.568Z,4.45
2022-12-24T01:32:17.468Z,5.65
2022-12-24T01:34:44.389Z,5.50
2022-12-24T01:37:11.204Z,3.63
2022-12-24T01:39:38.021Z,4.75
2022-12-24T01:42:41.279Z,4.35
2022-12-24T01:45:47.488Z,4.55
2022-12-24T01:48:25.718Z,5.10
2022-12-24T01:50:58.546Z,4.88
2022-12-24T01:53:25.416Z,4.85
2022-12-24T01:55:52.626Z,5.45
2022-12-24T01:58:21.743Z,4.45
2022-12-24T02:00:48.703Z,4.32
2022-12-24T02:03:16.848Z,4.22
2022-12-24T02:05:52.641Z,4.18
2022-12-24T02:08:19.756Z,4.82
2022-12-24T02:10:51.243Z,4.40
2022-12-24T02:13:21.263Z,5.15
2022-12-24T02:16:23.851Z,3.92
2022-12-24T02:19:01.349Z,4.68
2022-12-24T02:21:53.791Z,5.07
2022-12-24T02:24:43.593Z,5.35
2022-12-24T02:27:28.923Z,4.45
2022-12-24T02:30:03.369Z,4.88
2022-12-24T02:32:35.952Z,5.55
2022-12-24T02:35:08.170Z,5.22
2022-12-24T02:37:41.579Z,5.87
2022-12-24T02:40:22.445Z,4.13
2022-12-24T02:42:54.127Z,6.20
2022-12-24T02:45:23.873Z,5.10
2022-12-24T02:47:52.330Z,5.28
2022-12-24T02:50:19.559Z,5.82
2022-12-24T02:52:48.284Z,4.40
2022-12-24T02:55:43.776Z,4.80
2022-12-24T02:58:16.576Z,5.03
2022-12-24T03:00:49.030Z,5.15
2022-12-24T03:03:45.229Z,6.15
2022-12-24T03:06:31.331Z,5.78
2022-12-24T03:09:15.602Z,6.10
2022-12-24T03:11:54.324Z,5.18
2022-12-24T03:14:23.231Z,6.38
2022-12-24T03:16:53.920Z,4.53
2022-12-24T03:19:22.265Z,5.57
2022-12-24T03:21:49.755Z,5.38
2022-12-24T03:24:16.594Z,7.15
2022-12-24T03:26:45.635Z,4.97
2022-12-24T03:29:12.459Z,6.25
2022-12-24T03:31:51.102Z,5.15
2022-12-24T03:34:18.942Z,5.68
2022-12-24T03:36:45.844Z,5.65
2022-12-24T03:39:12.691Z,5.60
2022-12-24T03:41:39.574Z,5.63
2022-12-24T03:44:06.401Z,5.28
2022-12-24T03:46:33.260Z,5.30
2022-12-24T03:49:00.088Z,5.35
2022-12-24T03:51:27.039Z,5.18
2022-12-24T03:53:54.355Z,6.05
2022-12-24T03:56:21.880Z,5.93
2022-12-24T03:58:48.981Z,7.20
2022-12-24T04:01:16.473Z,6.53
2022-12-24T04:03:43.894Z,6.43
2022-12-24T04:06:14.783Z,5.18
2022-12-24T04:08:41.807Z,6.05
2022-12-24T04:11:10.498Z,6.28
2022-12-24T04:13:37.723Z,5.75
2022-12-24T04:16:07.115Z,4.93
2022-12-24T04:18:34.146Z,5.15
2022-12-24T04:21:01.070Z,4.82
2022-12-24T04:23:31.416Z,5.88
2022-12-24T04:26:02.336Z,4.53
2022-12-24T04:28:30.546Z,5.38
2022-12-24T04:31:04.145Z,6.53
2022-12-24T04:33:31.351Z,5.30
2022-12-24T04:35:59.559Z,5.68
2022-12-24T04:38:26.851Z,4.78
2022-12-24T04:41:01.122Z,5.13
2022-12-24T04:43:29.101Z,6.00
2022-12-24T04:45:56.451Z,5.40
2022-12-24T04:48:23.643Z,5.30
2022-12-24T04:50:50.799Z,7.10
2022-12-24T04:53:17.664Z,5.55
2022-12-24T04:55:47.867Z,5.50
2022-12-24T04:58:14.779Z,6.10
2022-12-24T05:00:41.937Z,5.82
2022-12-24T05:03:09.104Z,5.68
2022-12-24T05:05:46.482Z,5.40
2022-12-24T05:08:13.986Z,5.50
2022-12-24T05:10:40.790Z,4.80
2022-12-24T05:13:07.656Z,5.00
2022-12-24T05:15:34.458Z,5.13
2022-12-24T05:18:01.350Z,5.35
2022-12-24T05:20:28.216Z,5.10
2022-12-24T05:23:13.580Z,6.90
2022-12-24T05:25:58.920Z,5.85
2022-12-24T05:28:25.866Z,4.57
2022-12-24T05:30:52.730Z,5.25
2022-12-24T05:33:19.544Z,5.45
2022-12-24T05:35:46.356Z,5.35
2022-12-24T05:38:13.200Z,4.18
2022-12-24T05:40:40.028Z,5.07
2022-12-24T05:43:06.824Z,3.88
2022-12-24T05:45:33.642Z,4.07
2022-12-24T05:48:00.533Z,4.82
2022-12-24T05:50:27.434Z,3.92
2022-12-24T05:52:54.225Z,4.60
2022-12-24T05:55:21.036Z,4.72
2022-12-24T05:57:47.872Z,5.22
2022-12-24T06:00:15.017Z,4.47
2022-12-24T06:02:41.915Z,3.75
2022-12-24T06:05:09.156Z,4.28
2022-12-24T06:07:35.980Z,4.38
2022-12-24T06:10:02.920Z,4.15
2022-12-24T06:12:29.768Z,4.85
2022-12-24T06:14:56.591Z,4.25
2022-12-24T06:17:23.493Z,3.40
2022-12-24T06:19:50.364Z,3.65
2022-12-24T06:22:18.158Z,3.88
2022-12-24T06:24:45.127Z,3.58
2022-12-24T06:27:11.926Z,3.50
2022-12-24T06:29:38.767Z,3.63
2022-12-24T06:32:05.709Z,3.45
2022-12-24T06:34:32.561Z,3.72
2022-12-24T06:36:59.391Z,3.83
2022-12-24T06:39:26.225Z,3.65
2022-12-24T06:41:53.079Z,3.22
2022-12-24T06:44:19.947Z,3.92
2022-12-24T06:46:46.805Z,3.55
2022-12-24T06:49:13.694Z,3.25
2022-12-24T06:51:40.536Z,3.25
2022-12-24T06:54:07.557Z,4.57
2022-12-24T06:56:34.689Z,4.53
2022-12-24T06:59:05.295Z,4.85
2022-12-24T07:01:32.683Z,4.53
2022-12-24T07:03:59.705Z,4.32
2022-12-24T07:06:29.435Z,4.25
2022-12-24T07:08:56.232Z,4.85
2022-12-24T07:11:24.931Z,4.65
2022-12-24T07:13:52.092Z,4.95
2022-12-24T07:16:19.303Z,5.22
2022-12-24T07:18:46.292Z,4.53
2022-12-24T07:21:13.131Z,5.70
2022-12-24T07:23:39.944Z,5.47
2022-12-24T07:26:07.255Z,4.65
2022-12-24T07:28:34.127Z,4.93
2022-12-24T07:31:01.196Z,6.05
2022-12-24T07:33:31.212Z,5.38
2022-12-24T07:36:06.479Z,4.55
2022-12-24T07:38:34.522Z,5.20
2022-12-24T07:41:03.796Z,6.22
2022-12-24T07:43:32.580Z,4.80
2022-12-24T07:45:59.833Z,4.07
2022-12-24T07:48:28.270Z,4.70
2022-12-24T07:50:56.807Z,5.15
2022-12-24T07:53:24.859Z,5.30
2022-12-24T07:55:51.811Z,4.35
2022-12-24T07:58:18.930Z,4.95
2022-12-24T08:00:46.043Z,5.78
2022-12-24T08:03:18.012Z,5.63
2022-12-24T08:05:45.296Z,5.90
2022-12-24T08:08:12.722Z,4.85
2022-12-24T08:10:40.738Z,5.63
2022-12-24T08:13:07.673Z,4.80
2022-12-24T08:15:34.759Z,5.78
2022-12-24T08:18:01.573Z,6.60
2022-12-24T08:20:28.431Z,5.40
2022-12-24T08:22:55.232Z,4.97
2022-12-24T08:25:22.244Z,5.85
2022-12-24T08:27:49.148Z,6.20
2022-12-24T08:30:20.813Z,5.93
2022-12-24T08:32:48.484Z,6.13
2022-12-24T08:35:15.400Z,5.05
2022-12-24T08:37:42.316Z,5.47
2022-12-24T08:40:09.951Z,9.40
2022-12-24T08:42:36.813Z,6.00
2022-12-24T08:45:03.860Z,6.03
2022-12-24T08:47:30.704Z,6.45
2022-12-24T08:49:57.521Z,5.38
2022-12-24T08:52:24.395Z,5.38
2022-12-24T08:54:51.191Z,5.72
2022-12-24T08:57:18.002Z,5.40
2022-12-24T08:59:44.785Z,4.88
2022-12-24T09:04:53.081Z,5.75
2022-12-24T09:07:19.910Z,5.43
2022-12-24T09:09:46.807Z,5.85
2022-12-24T09:12:13.648Z,5.07
2022-12-24T09:14:40.542Z,4.97
2022-12-24T09:17:07.442Z,4.93
2022-12-24T09:19:34.325Z,5.53
2022-12-24T09:22:01.256Z,5.18
2022-12-24T09:24:28.198Z,6.03
2022-12-24T09:26:57.918Z,5.18
2022-12-24T09:29:25.430Z,5.10
2022-12-24T09:31:52.382Z,5.20
2022-12-24T09:34:20.898Z,4.45
2022-12-24T09:36:49.648Z,5.18
2022-12-24T09:39:16.469Z,5.95
2022-12-24T09:42:03.576Z,6.00
2022-12-24T09:44:55.324Z,5.43
2022-12-24T09:47:49.605Z,5.32
2022-12-24T09:50:52.155Z,5.75
2022-12-24T09:53:26.581Z,4.38
2022-12-24T09:55:57.569Z,6.22
2022-12-24T09:58:41.020Z,6.22
2022-12-24T10:01:12.591Z,6.22
2022-12-24T10:03:39.865Z,5.15
2022-12-24T10:06:11.813Z,4.78
2022-12-24T10:08:41.729Z,5.72
2022-12-24T10:11:30.709Z,4.93
2022-12-24T10:14:03.930Z,5.20
2022-12-24T10:17:03.098Z,4.70
2022-12-24T10:19:51.549Z,6.00
2022-12-24T10:22:40.505Z,5.60
2022-12-24T10:25:19.997Z,6.25
2022-12-24T10:27:47.188Z,5.35
2022-12-24T10:30:19.935Z,5.15
2022-12-24T10:32:56.775Z,6.15
2022-12-24T10:35:27.058Z,6.13
2022-12-24T10:37:54.028Z,6.47
2022-12-24T10:40:43.044Z,4.72
2022-12-24T10:43:21.871Z,5.18
2022-12-24T10:45:51.799Z,5.32
2022-12-24T10:48:33.498Z,5.40
2022-12-24T10:51:04.801Z,5.25
2022-12-24T10:53:45.083Z,5.50
2022-12-24T10:56:13.980Z,4.68
2022-12-24T10:58:45.800Z,5.68
2022-12-24T11:01:14.001Z,5.40
2022-12-24T11:03:42.611Z,5.75
2022-12-24T11:06:21.357Z,5.28
2022-12-24T11:08:49.374Z,5.38
2022-12-24T11:11:20.957Z,4.00
2022-12-24T11:13:50.684Z,5.35
2022-12-24T11:16:41.134Z,5.68
2022-12-24T11:19:17.182Z,4.85
2022-12-24T11:21:44.554Z,5.65
2022-12-24T11:24:14.165Z,4.88
2022-12-24T11:26:42.996Z,5.45
2022-12-24T11:29:19.816Z,5.40
2022-12-24T11:31:47.375Z,6.10
2022-12-24T11:34:33.564Z,5.07
2022-12-24T11:37:23.316Z,4.97
2022-12-24T11:39:59.770Z,5.20
2022-12-24T11:42:38.163Z,5.53
2022-12-24T11:45:14.718Z,6.63
2022-12-24T11:47:42.058Z,4.93
2022-12-24T11:50:31.876Z,6.13
2022-12-24T11:53:04.687Z,7.30
2022-12-24T11:55:50.657Z,4.75
2022-12-24T11:58:23.518Z,4.40
2022-12-24T12:00:52.172Z,5.22
2022-12-24T12:04:14.187Z,4.78
2022-12-24T12:06:50.959Z,5.03
2022-12-24T12:09:29.260Z,5.47
2022-12-24T12:12:02.124Z,5.82
2022-12-24T12:14:35.274Z,5.55
2022-12-24T12:17:32.111Z,4.90
2022-12-24T12:20:30.712Z,5.03
2022-12-24T12:23:24.397Z,6.15
2022-12-24T12:25:55.407Z,5.43
2022-12-24T12:28:36.036Z,5.00
2022-12-24T12:31:19.599Z,5.22
2022-12-24T12:33:58.214Z,5.28
2022-12-24T12:36:32.956Z,5.38
2022-12-24T12:39:00.117Z,5.45
2022-12-24T12:41:26.982Z,5.38
2022-12-24T12:44:09.332Z,5.32
2022-12-24T12:47:07.233Z,4.53
2022-12-24T12:50:04.166Z,5.70
2022-12-24T12:52:54.508Z,5.68
2022-12-24T12:55:34.207Z,7.38
2022-12-24T12:58:04.715Z,7.05
2022-12-24T13:00:36.933Z,4.85
2022-12-24T13:03:25.914Z,6.25
2022-12-24T13:06:14.153Z,5.20
2022-12-24T13:09:08.589Z,6.38
2022-12-24T13:11:48.686Z,7.85
2022-12-24T13:14:24.672Z,6.53
2022-12-24T13:16:54.296Z,5.35
2022-12-24T13:19:38.440Z,5.00
2022-12-24T13:22:05.837Z,5.75
2022-12-24T13:24:33.299Z,5.50
2022-12-24T13:27:15.161Z,5.10
2022-12-24T13:30:09.719Z,5.88
2022-12-24T13:32:51.602Z,4.88
2022-12-24T13:35:21.564Z,5.63
2022-12-24T13:37:49.488Z,4.88
2022-12-24T13:40:28.679Z,5.40
2022-12-24T13:43:01.417Z,6.55
2022-12-24T13:45:31.900Z,4.88
2022-12-24T13:48:10.815Z,4.93
2022-12-24T13:50:47.844Z,6.97
2022-12-24T13:53:28.354Z,5.32
2022-12-24T13:55:57.799Z,5.60
2022-12-24T13:58:25.652Z,4.95
2022-12-24T14:01:01.888Z,4.72
2022-12-24T14:03:35.718Z,5.10
2022-12-24T14:06:12.000Z,4.18
2022-12-24T14:08:44.178Z,5.43
2022-12-24T14:11:12.242Z,5.03
2022-12-24T14:13:39.040Z,5.10
2022-12-24T14:16:10.319Z,6.20
2022-12-24T14:18:46.368Z,5.78
2022-12-24T14:21:24.880Z,5.22
2022-12-24T14:23:58.896Z,5.80
2022-12-24T14:26:30.813Z,4.80
2022-12-24T14:29:22.879Z,6.18
2022-12-24T14:31:53.711Z,5.00
2022-12-24T14:34:21.273Z,5.22
2022-12-24T14:36:49.385Z,4.60
2022-12-24T14:39:32.912Z,5.75
2022-12-24T14:42:13.178Z,7.55
2022-12-24T14:45:01.396Z,4.88
2022-12-24T14:47:46.190Z,5.43
2022-12-24T14:50:36.340Z,4.70
2022-12-24T14:53:10.546Z,6.22
2022-12-24T14:55:44.219Z,7.53
2022-12-24T14:58:31.878Z,5.07
2022-12-24T15:01:17.300Z,6.72
2022-12-24T15:03:44.592Z,5.13
2022-12-24T15:06:13.417Z,6.93
2022-12-24T15:08:49.139Z,6.60
2022-12-24T15:11:21.600Z,7.55
2022-12-24T15:13:54.048Z,5.55
2022-12-24T15:16:33.421Z,7.40
2022-12-24T15:19:03.414Z,6.53
2022-12-24T15:21:35.478Z,7.43
2022-12-24T15:24:02.378Z,9.23
2022-12-24T15:26:37.112Z,5.65
2022-12-24T15:29:21.206Z,6.40
2022-12-24T15:31:55.864Z,6.07
2022-12-24T15:34:28.348Z,5.43
2022-12-24T15:37:03.491Z,5.28
2022-12-24T15:39:30.934Z,5.80
2022-12-24T15:42:18.102Z,4.78
2022-12-24T15:45:04.304Z,4.82
2022-12-24T15:47:38.691Z,4.40
2022-12-24T15:50:30.472Z,6.07
2022-12-24T15:53:20.136Z,6.18
2022-12-24T15:56:00.314Z,6.82
2022-12-24T15:58:30.531Z,6.45
2022-12-24T16:01:09.263Z,6.10
2022-12-24T16:03:39.099Z,5.15
2022-12-24T16:06:11.704Z,6.90
2022-12-24T16:08:40.703Z,7.47
2022-12-24T16:11:19.259Z,4.53
2022-12-24T16:13:51.749Z,4.30
2022-12-24T16:16:22.102Z,5.18
2022-12-24T16:18:52.011Z,5.45
2022-12-24T16:21:52.435Z,3.50
2022-12-24T16:24:22.018Z,4.80
2022-12-24T16:26:48.991Z,5.22
2022-12-24T16:29:19.388Z,5.97
2022-12-24T16:31:54.123Z,5.93
2022-12-24T16:34:26.610Z,6.60
2022-12-24T16:36:53.943Z,5.22
2022-12-24T16:39:32.475Z,4.75
2022-12-24T16:42:21.350Z,6.03
2022-12-24T16:44:48.665Z,5.82
2022-12-24T16:47:35.695Z,5.00
2022-12-24T16:50:08.641Z,5.72
2022-12-24T16:52:35.710Z,8.40
2022-12-24T16:55:02.617Z,11.93
2022-12-24T16:57:29.633Z,15.38
2022-12-24T16:59:56.525Z,17.88
2022-12-24T17:02:25.353Z,18.77
2022-12-24T17:04:52.562Z,24.25
2022-12-24T17:07:21.098Z,18.88
2022-12-24T17:09:48.072Z,12.45
2022-12-24T17:12:15.700Z,10.30
2022-12-24T17:14:42.792Z,8.85
2022-12-24T17:17:25.462Z,12.20
2022-12-24T17:19:52.265Z,14.52
2022-12-24T17:22:20.200Z,16.15
2022-12-24T17:24:47.132Z,23.70
2022-12-24T17:27:14.182Z,19.00
2022-12-24T17:29:41.515Z,20.48
2022-12-24T17:32:08.505Z,19.40
2022-12-24T17:34:35.625Z,20.60
2022-12-24T17:37:02.429Z,16.20
2022-12-24T17:39:29.362Z,15.13
2022-12-24T17:41:57.194Z,14.00
2022-12-24T17:44:27.027Z,12.35
2022-12-24T17:46:54.151Z,12.60
2022-12-24T17:49:21.070Z,15.52
2022-12-24T17:51:48.055Z,13.23
2022-12-24T17:54:15.565Z,11.80
2022-12-24T17:56:42.598Z,11.38
2022-12-24T17:59:09.515Z,12.20
2022-12-24T18:01:36.691Z,15.60
2022-12-24T18:04:04.262Z,10.15
2022-12-24T18:06:31.528Z,9.15
2022-12-24T18:08:58.532Z,9.07
2022-12-24T18:11:34.766Z,11.43
2022-12-24T18:14:02.595Z,13.27
2022-12-24T18:16:37.741Z,12.57
2022-12-24T18:19:08.294Z,12.02
2022-12-24T18:21:35.377Z,12.52
2022-12-24T18:24:03.064Z,10.00
2022-12-24T18:26:31.064Z,10.07
2022-12-24T18:29:00.255Z,9.23
2022-12-24T18:31:29.826Z,10.43
2022-12-24T18:33:56.995Z,8.98
2022-12-24T18:36:24.871Z,10.80
2022-12-24T18:38:52.258Z,10.55
2022-12-24T18:41:25.276Z,14.43
2022-12-24T18:46:22.020Z,14.90
2022-12-24T18:48:50.141Z,14.13
2022-12-24T18:51:18.107Z,16.05
2022-12-24T18:53:45.252Z,12.98
2022-12-24T18:56:21.087Z,11.70
2022-12-24T18:58:48.377Z,10.65
2022-12-24T19:01:23.060Z,11.30
2022-12-24T19:03:50.365Z,10.30
2022-12-24T19:06:17.878Z,10.48
2022-12-24T19:09:01.602Z,11.57
2022-12-24T19:11:33.736Z,8.32
2022-12-24T19:14:01.647Z,10.50
2022-12-24T19:16:30.077Z,11.75
2022-12-24T19:18:57.267Z,12.27
2022-12-24T19:21:24.312Z,12.65
2022-12-24T19:23:52.002Z,11.98
2022-12-24T19:26:20.049Z,14.18
2022-12-24T19:28:47.321Z,14.18
2022-12-24T19:31:19.879Z,9.15
2022-12-24T19:33:52.145Z,10.60
2022-12-24T19:36:21.955Z,10.38
2022-12-24T19:38:48.907Z,12.30
2022-12-24T19:41:21.052Z,12.98
2022-12-24T19:43:50.552Z,10.97
2022-12-24T19:46:19.993Z,9.95
2022-12-24T19:48:51.867Z,9.63
2022-12-24T19:51:18.785Z,13.07
2022-12-24T19:53:45.973Z,12.57
2022-12-24T19:56:16.182Z,13.15
2022-12-24T19:58:43.167Z,14.07
2022-12-24T20:01:16.320Z,12.00
2022-12-24T20:03:44.434Z,13.70
2022-12-24T20:06:12.300Z,12.05
2022-12-24T20:08:39.698Z,11.38
2022-12-24T20:11:11.728Z,11.82
2022-12-24T20:13:39.842Z,13.75
2022-12-24T20:16:12.381Z,14.25
2022-12-24T20:18:39.432Z,13.77
2022-12-24T20:21:08.901Z,14.02
2022-12-24T20:23:38.409Z,12.00
2022-12-24T20:26:06.883Z,12.48
2022-12-24T20:28:36.106Z,14.15
2022-12-24T20:31:12.141Z,14.75
2022-12-24T20:33:39.807Z,14.13
2022-12-24T20:36:07.230Z,13.40
2022-12-24T20:38:34.055Z,13.90
2022-12-24T20:41:01.156Z,12.52
2022-12-24T20:43:34.061Z,14.48
2022-12-24T20:46:03.360Z,14.65
2022-12-24T20:48:31.159Z,15.48
2022-12-24T20:50:58.419Z,16.00
2022-12-24T20:53:26.016Z,17.15
2022-12-24T20:55:53.954Z,17.40
2022-12-24T20:58:21.126Z,20.85
2022-12-24T21:00:48.706Z,18.35
2022-12-24T21:03:16.377Z,19.77
2022-12-24T21:05:43.499Z,15.02
2022-12-24T21:08:11.639Z,14.02
2022-12-24T21:10:38.931Z,15.27
2022-12-24T21:13:06.209Z,13.77
2022-12-24T21:15:39.835Z,14.90
2022-12-24T21:18:12.018Z,15.00
2022-12-24T21:20:40.165Z,16.67
2022-12-24T21:23:07.417Z,15.50
2022-12-24T21:25:35.312Z,15.30
2022-12-24T21:28:02.129Z,15.98
2022-12-24T21:30:29.044Z,16.80
2022-12-24T21:32:55.862Z,15.90
2022-12-24T21:35:22.704Z,15.45
2022-12-24T21:37:49.525Z,14.52
2022-12-24T21:40:16.388Z,11.45
2022-12-24T21:42:43.245Z,11.98
2022-12-24T21:45:10.967Z,13.40
2022-12-24T21:47:38.334Z,14.60
2022-12-24T21:50:28.263Z,14.80
2022-12-24T21:53:19.531Z,13.70
2022-12-24T21:55:46.705Z,14.98
2022-12-24T21:58:13.650Z,14.95
2022-12-24T22:00:40.633Z,13.77
2022-12-24T22:03:07.707Z,13.20
2022-12-24T22:05:35.454Z,12.90
2022-12-24T22:08:21.180Z,13.88
2022-12-24T22:11:06.668Z,14.55
2022-12-24T22:13:33.514Z,13.20
2022-12-24T22:16:00.342Z,13.02
2022-12-24T22:18:27.440Z,14.43
2022-12-24T22:20:54.838Z,12.68
2022-12-24T22:23:21.680Z,13.10
2022-12-24T22:25:48.567Z,11.18
2022-12-24T22:28:15.457Z,13.02
2022-12-24T22:30:50.769Z,20.85
2022-12-24T22:33:17.577Z,14.25
2022-12-24T22:35:44.415Z,17.05
2022-12-24T22:38:13.656Z,13.35
2022-12-24T22:40:40.687Z,11.43
2022-12-24T22:43:07.591Z,11.98
2022-12-24T22:45:34.497Z,11.45
2022-12-24T22:48:01.284Z,10.93
2022-12-24T22:50:34.923Z,12.05
2022-12-24T22:53:01.729Z,11.73
2022-12-24T22:55:28.565Z,14.75
2022-12-24T22:58:03.143Z,14.82
2022-12-24T23:00:43.312Z,15.68
2022-12-24T23:03:11.402Z,12.93
2022-12-24T23:05:38.931Z,12.18
2022-12-24T23:08:06.240Z,11.80
2022-12-24T23:10:33.219Z,12.13
2022-12-24T23:13:20.596Z,12.63
2022-12-24T23:15:47.550Z,11.63
2022-12-24T23:18:14.668Z,11.30
2022-12-24T23:20:45.385Z,12.23
2022-12-24T23:23:12.845Z,11.27
2022-12-24T23:25:39.876Z,10.40
2022-12-24T23:28:07.155Z,11.35
2022-12-24T23:30:34.029Z,11.68
2022-12-24T23:33:01.022Z,9.98
2022-12-24T23:35:27.836Z,11.40
2022-12-24T23:37:54.852Z,10.80
2022-12-24T23:40:21.746Z,11.70
2022-12-24T23:42:48.709Z,11.38
2022-12-24T23:45:15.555Z,11.80
2022-12-24T23:47:42.828Z,11.80
2022-12-24T23:50:10.669Z,10.25
2022-12-24T23:52:38.463Z,12.07
2022-12-24T23:55:06.452Z,11.63
2022-12-24T23:57:33.295Z,11.23
